Time;durP1;ratioP1;P1;durP2;ratioP2;P2;SDS_P1;SDS_P2;PMS_P1;PMS_P2;Temp;Humidity;BMP_temperature;BMP_pressure;BME280_temperature;BME280_humidity;BME280_pressure;Samples;Min_cycle;Max_cycle;Signal;HPM_P1;HPM_P2
2022/02/13 00:03:43;;;;;;;35.40;14.45;;;;;;;;;;19809777;30;20148;-56
2022/02/13 00:13:45;;;;;;;21.80;10.48;;;;;;;;;;19809304;29;20059;-59
2022/02/13 00:23:47;;;;;;;26.55;10.30;;;;;;;;;;19824508;30;20063;-58
2022/02/13 00:33:49;;;;;;;25.70;10.00;;;;;;;;;;19824844;30;20112;-63
2022/02/13 00:43:51;;;;;;;24.27;9.20;;;;;;;;;;19823647;30;20063;-56
2022/02/13 00:53:53;;;;;;;38.13;21.60;;;;;;;;;;19822772;30;20063;-62
2022/02/13 01:03:55;;;;;;;33.22;14.02;;;;;;;;;;19821868;30;20059;-63
2022/02/13 01:13:57;;;;;;;27.05;11.15;;;;;;;;;;19821796;30;20060;-56
2022/02/13 01:23:59;;;;;;;30.73;11.10;;;;;;;;;;19820186;29;20512;-64
2022/02/13 01:34:01;;;;;;;20.63;9.18;;;;;;;;;;19819390;30;20146;-64
2022/02/13 01:44:03;;;;;;;26.83;10.73;;;;;;;;;;19819976;30;20055;-60
2022/02/13 01:54:05;;;;;;;27.38;11.00;;;;;;;;;;19818442;30;20075;-60
2022/02/13 02:04:07;;;;;;;27.98;14.13;;;;;;;;;;19818064;30;20491;-62
2022/02/13 02:14:11;;;;;;;32.28;14.32;;;;;;;;;;19817565;30;20066;-56
2022/02/13 02:24:14;;;;;;;30.88;14.05;;;;;;;;;;19816224;30;20067;-57
2022/02/13 02:34:18;;;;;;;36.60;14.30;;;;;;;;;;19800839;30;20061;-56
2022/02/13 02:44:21;;;;;;;29.65;14.70;;;;;;;;;;19815310;30;20119;-59
2022/02/13 02:54:29;;;;;;;38.47;16.33;;;;;;;;;;19815580;30;20505;-56
2022/02/13 03:04:43;;;;;;;38.30;16.13;;;;;;;;;;19814797;30;20479;-57
2022/02/13 03:15:05;;;;;;;27.42;15.15;;;;;;;;;;19815655;30;20059;-64
2022/02/13 03:25:18;;;;;;;39.78;15.27;;;;;;;;;;19814064;30;20063;-63
2022/02/13 03:35:30;;;;;;;33.22;14.93;;;;;;;;;;19814303;30;20063;-61
2022/02/13 03:45:37;;;;;;;38.10;14.75;;;;;;;;;;19814829;30;20205;-57
2022/02/13 03:55:46;;;;;;;39.30;14.73;;;;;;;;;;19824845;29;20060;-64
2022/02/13 04:05:53;;;;;;;32.80;16.57;;;;;;;;;;19825985;30;20457;-55
2022/02/13 04:16:02;;;;;;;28.67;15.00;;;;;;;;;;19825331;30;20063;-56
2022/02/13 04:26:10;;;;;;;35.78;15.07;;;;;;;;;;19824156;30;20569;-57
2022/02/13 04:36:18;;;;;;;28.27;14.75;;;;;;;;;;19823951;30;20509;-56
2022/02/13 04:46:26;;;;;;;34.53;14.75;;;;;;;;;;19824345;30;20402;-55
2022/02/13 04:56:31;;;;;;;30.48;14.20;;;;;;;;;;19822345;30;20420;-54
2022/02/13 05:06:33;;;;;;;28.15;13.43;;;;;;;;;;19821052;29;20058;-53
2022/02/13 05:16:35;;;;;;;30.88;13.57;;;;;;;;;;19821073;30;20109;-54
2022/02/13 05:26:37;;;;;;;27.67;13.57;;;;;;;;;;19819882;30;20150;-62
2022/02/13 05:36:41;;;;;;;25.92;13.90;;;;;;;;;;19820217;30;20078;-58
2022/02/13 05:46:44;;;;;;;32.25;13.82;;;;;;;;;;19818974;30;20051;-64
2022/02/13 05:56:47;;;;;;;30.02;12.77;;;;;;;;;;19802751;30;20055;-57
2022/02/13 06:06:50;;;;;;;30.08;13.13;;;;;;;;;;19818039;30;20150;-60
2022/02/13 06:16:57;;;;;;;20.85;9.57;;;;;;;;;;19817275;29;20436;-55
2022/02/13 06:27:03;;;;;;;20.60;9.45;;;;;;;;;;19816269;29;20086;-62
2022/02/13 06:37:07;;;;;;;22.15;9.70;;;;;;;;;;19815886;30;20103;-59
2022/02/13 06:47:10;;;;;;;22.67;10.23;;;;;;;;;;19815687;30;20055;-55
2022/02/13 06:57:13;;;;;;;28.02;10.35;;;;;;;;;;19815946;30;20063;-55
2022/02/13 07:07:18;;;;;;;25.87;10.60;;;;;;;;;;19815245;30;20106;-55
2022/02/13 07:17:21;;;;;;;37.40;13.82;;;;;;;;;;19815066;30;20138;-57
2022/02/13 07:27:24;;;;;;;26.52;12.18;;;;;;;;;;19821873;29;20064;-56
2022/02/13 07:37:26;;;;;;;26.88;12.25;;;;;;;;;;19828224;30;20055;-64
2022/02/13 07:47:30;;;;;;;24.23;10.93;;;;;;;;;;19827920;30;20136;-56
2022/02/13 07:57:35;;;;;;;27.17;10.80;;;;;;;;;;19827403;30;20105;-54
2022/02/13 08:07:44;;;;;;;23.98;10.57;;;;;;;;;;19826563;30;20063;-56
2022/02/13 08:17:46;;;;;;;24.27;11.20;;;;;;;;;;19825622;30;20059;-65
2022/02/13 08:27:48;;;;;;;29.80;11.38;;;;;;;;;;19824605;29;20424;-62
2022/02/13 08:37:51;;;;;;;25.20;11.30;;;;;;;;;;19824734;29;20084;-61
2022/02/13 08:47:54;;;;;;;24.13;12.07;;;;;;;;;;19823790;30;20140;-65
2022/02/13 08:57:57;;;;;;;29.02;12.35;;;;;;;;;;19822553;30;20462;-55
2022/02/13 09:08:01;;;;;;;27.30;12.98;;;;;;;;;;19822260;30;20146;-59
2022/02/13 09:18:04;;;;;;;26.60;13.07;;;;;;;;;;19821003;30;20065;-62
2022/02/13 09:28:06;;;;;;;27.67;12.45;;;;;;;;;;19819763;30;20146;-59
2022/02/13 09:38:11;;;;;;;27.50;14.15;;;;;;;;;;19820039;30;20076;-55
2022/02/13 09:48:17;;;;;;;28.65;14.40;;;;;;;;;;19818546;30;20062;-62
2022/02/13 09:58:20;;;;;;;29.73;11.70;;;;;;;;;;19818728;30;20443;-58
2022/02/13 10:08:26;;;;;;;29.08;10.48;;;;;;;;;;19818025;30;20065;-57
2022/02/13 10:18:29;;;;;;;18.38;6.95;;;;;;;;;;19816815;29;20078;-60
2022/02/13 10:28:32;;;;;;;19.65;8.18;;;;;;;;;;19816986;30;20104;-65
2022/02/13 10:38:37;;;;;;;17.65;6.18;;;;;;;;;;19816426;30;20055;-66
2022/02/13 10:48:42;;;;;;;19.95;6.15;;;;;;;;;;19816235;30;20059;-57
2022/02/13 10:58:48;;;;;;;14.68;5.15;;;;;;;;;;19818405;29;20055;-58
2022/02/13 11:08:55;;;;;;;11.43;5.57;;;;;;;;;;19831292;30;20083;-62
2022/02/13 11:19:02;;;;;;;12.98;4.75;;;;;;;;;;19829113;29;20059;-56
2022/02/13 11:29:05;;;;;;;14.75;5.55;;;;;;;;;;19828309;30;20463;-56
2022/02/13 11:39:07;;;;;;;15.90;4.93;;;;;;;;;;19828174;30;20062;-55
2022/02/13 11:49:11;;;;;;;18.33;5.18;;;;;;;;;;19827297;30;20062;-57
2022/02/13 11:59:13;;;;;;;15.65;4.72;;;;;;;;;;19827681;30;20490;-58
2022/02/13 12:09:17;;;;;;;10.70;4.30;;;;;;;;;;19825666;29;20063;-57
2022/02/13 12:19:26;;;;;;;10.50;4.80;;;;;;;;;;19825494;29;20067;-57
2022/02/13 12:29:29;;;;;;;12.40;4.20;;;;;;;;;;19824197;30;20064;-56
2022/02/13 12:39:33;;;;;;;18.23;5.32;;;;;;;;;;19825199;30;20480;-57
2022/02/13 12:49:35;;;;;;;17.98;4.93;;;;;;;;;;19822236;30;20070;-56
2022/02/13 12:59:37;;;;;;;15.25;3.95;;;;;;;;;;19822056;30;20459;-55
2022/02/13 13:09:39;;;;;;;12.13;4.43;;;;;;;;;;19821474;30;20052;-56
2022/02/13 13:19:43;;;;;;;13.13;4.47;;;;;;;;;;19819645;29;20148;-57
2022/02/13 13:29:47;;;;;;;15.43;3.97;;;;;;;;;;19819191;30;20055;-58
2022/02/13 13:40:03;;;;;;;12.55;3.90;;;;;;;;;;19819309;30;20055;-58
2022/02/13 13:50:06;;;;;;;8.57;3.70;;;;;;;;;;19818979;30;20063;-56
2022/02/13 14:00:09;;;;;;;11.52;4.38;;;;;;;;;;19817738;30;20509;-61
2022/02/13 14:10:12;;;;;;;13.90;4.47;;;;;;;;;;19816612;30;20060;-55
2022/02/13 14:20:16;;;;;;;10.80;4.55;;;;;;;;;;19816895;29;20087;-63
2022/02/13 14:30:20;;;;;;;11.47;3.73;;;;;;;;;;19800920;30;20497;-62
2022/02/13 14:40:26;;;;;;;15.02;4.75;;;;;;;;;;19814944;30;20063;-56
2022/02/13 14:50:31;;;;;;;12.15;4.53;;;;;;;;;;19815041;30;20067;-62
2022/02/13 15:00:34;;;;;;;10.88;4.68;;;;;;;;;;19814433;30;20059;-56
2022/02/13 15:10:37;;;;;;;11.80;4.60;;;;;;;;;;19814435;30;20134;-59
2022/02/13 15:20:39;;;;;;;13.38;5.15;;;;;;;;;;19813292;29;20436;-56
2022/02/13 15:30:42;;;;;;;13.85;4.82;;;;;;;;;;19796210;30;20521;-56
2022/02/13 15:40:44;;;;;;;12.10;4.75;;;;;;;;;;19812295;30;20425;-56
2022/02/13 15:50:46;;;;;;;13.88;4.55;;;;;;;;;;19807450;30;20078;-56
2022/02/13 16:00:48;;;;;;;14.30;5.43;;;;;;;;;;19825735;30;20421;-56
2022/02/13 16:10:50;;;;;;;13.68;5.55;;;;;;;;;;19808300;30;20086;-55
2022/02/13 16:20:52;;;;;;;14.00;4.78;;;;;;;;;;19823828;29;20059;-54
2022/02/13 16:30:54;;;;;;;12.70;4.70;;;;;;;;;;19822451;30;20051;-64
2022/02/13 16:40:56;;;;;;;11.75;4.13;;;;;;;;;;19823075;30;20142;-64
2022/02/13 16:50:58;;;;;;;12.13;5.47;;;;;;;;;;19822775;30;20055;-58
2022/02/13 17:01:01;;;;;;;18.27;4.05;;;;;;;;;;19821980;29;20059;-55
2022/02/13 17:11:02;;;;;;;13.88;4.38;;;;;;;;;;19821222;30;20142;-56
2022/02/13 17:21:12;;;;;;;12.90;4.30;;;;;;;;;;19820154;29;20075;-55
2022/02/13 17:31:14;;;;;;;13.43;4.28;;;;;;;;;;19820231;30;20417;-56
2022/02/13 17:41:16;;;;;;;13.35;4.60;;;;;;;;;;19818384;30;20116;-63
2022/02/13 17:51:18;;;;;;;10.15;3.50;;;;;;;;;;19817972;30;20103;-55
2022/02/13 18:01:20;;;;;;;13.93;5.13;;;;;;;;;;19817016;30;20059;-55
2022/02/13 18:11:22;;;;;;;14.60;4.22;;;;;;;;;;19800423;30;20083;-56
2022/02/13 18:21:24;;;;;;;11.73;3.50;;;;;;;;;;19816953;29;20067;-56
2022/02/13 18:31:27;;;;;;;12.80;3.88;;;;;;;;;;19815886;30;20055;-56
2022/02/13 18:41:29;;;;;;;8.77;3.67;;;;;;;;;;19815293;30;20096;-61
2022/02/13 18:51:31;;;;;;;13.55;4.43;;;;;;;;;;19815359;30;20490;-61
2022/02/13 19:01:34;;;;;;;17.58;4.22;;;;;;;;;;19815070;30;20088;-57
2022/02/13 19:11:35;;;;;;;12.63;4.03;;;;;;;;;;19814719;30;20413;-55
2022/02/13 19:21:38;;;;;;;10.60;3.00;;;;;;;;;;19819080;29;20070;-58
2022/02/13 19:31:40;;;;;;;9.55;4.25;;;;;;;;;;19828792;30;20062;-58
2022/02/13 19:41:42;;;;;;;8.02;2.58;;;;;;;;;;19828728;30;20455;-55
2022/02/13 19:51:44;;;;;;;7.75;2.85;;;;;;;;;;19827383;30;20139;-58
2022/02/13 20:01:46;;;;;;;6.07;3.10;;;;;;;;;;19827194;30;20422;-57
2022/02/13 20:11:49;;;;;;;10.27;2.47;;;;;;;;;;19826043;30;20055;-56
2022/02/13 20:21:53;;;;;;;9.50;3.17;;;;;;;;;;19824806;29;20891;-56
2022/02/13 20:31:56;;;;;;;5.93;2.77;;;;;;;;;;19824745;29;20085;-57
2022/02/13 20:41:58;;;;;;;7.18;3.05;;;;;;;;;;19823910;30;20152;-56
2022/02/13 20:52:01;;;;;;;9.05;4.18;;;;;;;;;;19823018;30;20112;-55
2022/02/13 21:02:03;;;;;;;9.35;3.10;;;;;;;;;;19822661;30;20059;-61
2022/02/13 21:12:05;;;;;;;10.40;2.85;;;;;;;;;;19822462;30;20055;-56
2022/02/13 21:22:08;;;;;;;6.53;2.72;;;;;;;;;;19820986;29;20070;-57
2022/02/13 21:32:10;;;;;;;13.57;2.42;;;;;;;;;;19820279;30;20055;-62
2022/02/13 21:42:12;;;;;;;8.95;3.08;;;;;;;;;;19819114;29;20147;-56
2022/02/13 21:52:13;;;;;;;8.40;2.67;;;;;;;;;;19818749;30;20493;-57
2022/02/13 22:02:16;;;;;;;7.13;2.55;;;;;;;;;;19818756;30;20093;-56
2022/02/13 22:12:17;;;;;;;12.88;3.70;;;;;;;;;;19817540;30;20051;-57
2022/02/13 22:22:19;;;;;;;5.78;2.53;;;;;;;;;;19816649;29;20113;-60
2022/02/13 22:32:22;;;;;;;9.95;2.45;;;;;;;;;;19816370;30;20059;-56
2022/02/13 22:42:24;;;;;;;11.45;2.90;;;;;;;;;;19815923;30;20055;-56
2022/02/13 22:52:26;;;;;;;8.02;3.05;;;;;;;;;;19814756;30;20059;-56
2022/02/13 23:02:28;;;;;;;9.20;3.25;;;;;;;;;;19814662;30;20468;-55
2022/02/13 23:12:38;;;;;;;8.85;2.92;;;;;;;;;;19814365;30;20066;-56
2022/02/13 23:22:39;;;;;;;5.43;2.45;;;;;;;;;;19813703;29;20059;-56
2022/02/13 23:32:42;;;;;;;7.65;2.30;;;;;;;;;;19814880;30;20180;-56
2022/02/13 23:42:44;;;;;;;9.57;3.60;;;;;;;;;;19797766;30;20055;-56
2022/02/13 23:52:45;;;;;;;8.02;3.00;;;;;;;;;;19813271;30;20130;-56
